Terminal Aerodrome Forecast
Issued by NWS

Home | Current Version | Previous Version | Text Only | Print | Product List | Glossary On
Versions: 1 2 3 4 5 6 7 8 9 10 11 12 13 14 15 16 17
000
FTAK31 PAJN 310500
TAFAJN
TAF
PAJN 310522Z 3106/0106 09007KT P6SM VCSH SCT025 BKN060
     FM310900 VRB03KT 6SM -RA BR SCT008 OVC015
     FM311700 08005KT P6SM -RA FEW005 SCT015 OVC030
     FM312000 08010KT P6SM -RA SCT015 OVC025
     FM010200 08005KT 6SM -RA BR SCT015 OVC020=

USA.gov is the U.S. government's official web portal to all federal, state and local government web resources and services.